Time;durP1;ratioP1;P1;durP2;ratioP2;P2;SDS_P1;SDS_P2;PMS_P1;PMS_P2;Temp;Humidity;BMP_temperature;BMP_pressure;BME280_temperature;BME280_humidity;BME280_pressure;Samples;Min_cycle;Max_cycle;Signal;HPM_P1;HPM_P2
2021/07/27 19:04:11;;;;;;;115.68;61.45;;;26.90;58.90;;;;;;5070305;28;20455;-69
2021/07/27 19:06:37;;;;;;;115.20;61.38;;;26.50;60.20;;;;;;5067439;28;20029;-71
2021/07/27 19:09:03;;;;;;;103.22;55.65;;;26.50;60.70;;;;;;5066878;28;20025;-69
2021/07/27 19:11:28;;;;;;;87.38;46.03;;;26.50;60.80;;;;;;5068165;28;20021;-69
2021/07/27 19:13:54;;;;;;;70.97;39.78;;;26.50;60.70;;;;;;5070192;28;20039;-70
2021/07/27 19:16:20;;;;;;;55.42;33.72;;;26.60;60.50;;;;;;5070336;28;20455;-69
2021/07/27 19:18:45;;;;;;;69.55;35.17;;;26.60;60.10;;;;;;5066657;28;20025;-70
2021/07/27 19:21:11;;;;;;;70.55;37.97;;;26.60;59.90;;;;;;5048617;28;20021;-67
2021/07/27 19:23:37;;;;;;;67.63;37.50;;;26.60;59.90;;;;;;5049968;28;20083;-70
2021/07/27 19:26:02;;;;;;;69.10;37.72;;;26.60;59.70;;;;;;5049633;28;20379;-69
2021/07/27 19:28:29;;;;;;;68.43;38.03;;;26.60;59.70;;;;;;5047910;28;20055;-70
2021/07/27 19:30:54;;;;;;;68.25;37.13;;;26.60;59.60;;;;;;5048416;28;20355;-70
2021/07/27 19:33:20;;;;;;;63.50;34.95;;;26.60;59.70;;;;;;5049961;28;20025;-67
2021/07/27 19:35:46;;;;;;;71.97;37.53;;;26.50;59.60;;;;;;5048541;28;20037;-71
2021/07/27 19:38:11;;;;;;;71.30;38.28;;;26.50;59.70;;;;;;5043313;28;20073;-74
2021/07/27 19:40:38;;;;;;;55.60;30.17;;;26.40;59.80;;;;;;5048975;28;21463;-73
2021/07/27 19:45:37;;;;;;;38.65;21.77;;;26.30;59.70;;;;;;5048836;28;20064;-73
2021/07/27 19:50:47;;;;;;;36.97;21.88;;;26.20;59.90;;;;;;5046099;28;20022;-73
2021/07/27 19:53:13;;;;;;;34.30;21.70;;;26.20;60.20;;;;;;5040732;28;20460;-73
2021/07/27 19:55:39;;;;;;;24.77;14.10;;;26.10;60.30;;;;;;5047798;28;20032;-73
2021/07/27 19:58:05;;;;;;;24.52;12.75;;;26.10;60.40;;;;;;5080680;28;20021;-73
2021/07/27 20:00:31;;;;;;;16.10;9.30;;;26.00;60.40;;;;;;5063370;28;20363;-73
2021/07/27 20:02:57;;;;;;;15.63;9.82;;;25.90;60.30;;;;;;5041787;28;20041;-73
2021/07/27 20:05:23;;;;;;;13.23;8.52;;;25.90;60.40;;;;;;5029642;28;20028;-73
2021/07/27 20:07:49;;;;;;;16.73;8.68;;;25.80;60.30;;;;;;5034414;28;20037;-73
2021/07/27 20:10:15;;;;;;;30.17;9.18;;;25.80;60.40;;;;;;5047594;28;20031;-73
2021/07/27 20:12:41;;;;;;;14.18;8.40;;;25.80;60.50;;;;;;5049053;28;20025;-73
2021/07/27 20:15:13;;;;;;;22.23;10.40;;;25.80;60.60;;;;;;5036508;28;20029;-73
2021/07/27 20:17:39;;;;;;;15.57;9.38;;;25.80;60.70;;;;;;5065769;28;20049;-72
2021/07/27 20:20:05;;;;;;;16.60;9.15;;;25.80;60.70;;;;;;5033271;28;20565;-73
2021/07/27 20:22:31;;;;;;;11.95;8.07;;;25.90;60.70;;;;;;5034836;28;20025;-73
2021/07/27 20:24:57;;;;;;;13.20;7.82;;;25.90;60.50;;;;;;5035605;28;20017;-72
2021/07/27 20:27:25;;;;;;;16.33;7.95;;;25.80;60.40;;;;;;5035244;28;20021;-72
2021/07/27 20:29:51;;;;;;;14.70;8.32;;;25.90;60.60;;;;;;5034135;28;20036;-73
2021/07/27 20:32:16;;;;;;;12.25;7.68;;;25.90;60.60;;;;;;5034592;28;20037;-73
2021/07/27 20:34:42;;;;;;;14.05;8.35;;;25.80;60.50;;;;;;5035445;28;20034;-73
2021/07/27 20:37:08;;;;;;;12.85;8.25;;;25.80;60.40;;;;;;5034477;28;20029;-73
2021/07/27 20:39:33;;;;;;;13.02;8.40;;;25.80;60.50;;;;;;5033826;28;20036;-71
2021/07/27 20:41:59;;;;;;;15.90;8.60;;;25.80;60.60;;;;;;5045179;28;20024;-70
2021/07/27 20:44:25;;;;;;;15.88;8.73;;;25.80;60.70;;;;;;5034516;28;20032;-70
2021/07/27 20:46:52;;;;;;;14.80;8.82;;;25.80;60.70;;;;;;5034473;28;20048;-71
2021/07/27 20:49:17;;;;;;;14.80;9.60;;;25.70;60.80;;;;;;5034457;28;20033;-71
2021/07/27 20:51:43;;;;;;;13.57;8.55;;;25.70;60.90;;;;;;5034778;28;20026;-70
2021/07/27 20:54:10;;;;;;;22.15;9.40;;;25.60;60.90;;;;;;5035097;28;20120;-71
2021/07/27 20:56:36;;;;;;;12.93;8.75;;;25.60;61.00;;;;;;5029148;28;20025;-71
2021/07/27 20:59:01;;;;;;;12.85;8.52;;;25.60;61.30;;;;;;5033764;28;20024;-70
2021/07/27 21:01:27;;;;;;;13.15;8.45;;;25.60;61.30;;;;;;5035167;28;20032;-70
2021/07/27 21:03:53;;;;;;;12.27;8.95;;;25.60;61.40;;;;;;5034034;28;20057;-70
2021/07/27 21:06:18;;;;;;;12.52;8.45;;;25.50;61.50;;;;;;5034215;28;20025;-70
2021/07/27 21:08:44;;;;;;;12.20;8.57;;;25.50;61.50;;;;;;5034492;28;20017;-70
2021/07/27 21:11:14;;;;;;;13.73;8.90;;;25.50;61.50;;;;;;5034071;28;20470;-70
2021/07/27 21:13:40;;;;;;;16.15;8.98;;;25.50;61.70;;;;;;5033932;28;20026;-70
2021/07/27 21:16:07;;;;;;;16.88;8.85;;;25.50;61.80;;;;;;5034362;28;20366;-71
2021/07/27 21:18:33;;;;;;;16.00;9.50;;;25.40;61.80;;;;;;5033909;28;20072;-70
2021/07/27 21:21:00;;;;;;;16.35;9.52;;;25.40;62.00;;;;;;5034257;28;20451;-70
2021/07/27 21:23:26;;;;;;;14.20;9.02;;;25.40;62.10;;;;;;5033979;28;20368;-70
2021/07/27 21:25:54;;;;;;;15.63;8.43;;;25.40;62.20;;;;;;5032860;28;20108;-70
2021/07/27 21:28:22;;;;;;;15.57;8.73;;;25.30;61.90;;;;;;5035150;28;20017;-70
2021/07/27 21:30:48;;;;;;;16.42;8.75;;;25.40;61.90;;;;;;5033882;28;20075;-70
2021/07/27 21:33:17;;;;;;;18.25;8.68;;;25.30;61.80;;;;;;5033823;28;20128;-70
2021/07/27 21:35:43;;;;;;;15.73;8.38;;;25.30;61.80;;;;;;5033855;28;20372;-70
2021/07/27 21:38:09;;;;;;;18.05;8.98;;;25.30;61.60;;;;;;5033621;28;20029;-70
2021/07/27 21:40:34;;;;;;;13.45;9.88;;;25.30;61.70;;;;;;5030879;28;20026;-70
2021/07/27 21:43:00;;;;;;;13.32;8.35;;;25.30;61.60;;;;;;5034701;28;20041;-71
2021/07/27 21:45:26;;;;;;;15.48;8.45;;;25.30;61.50;;;;;;5034466;28;20037;-72
2021/07/27 21:47:51;;;;;;;12.35;7.95;;;25.30;61.30;;;;;;5023702;28;20384;-72
2021/07/27 21:50:17;;;;;;;16.95;7.95;;;25.30;61.30;;;;;;5032698;28;20021;-72
2021/07/27 21:52:43;;;;;;;10.75;7.47;;;25.30;61.30;;;;;;5065752;28;20099;-72
2021/07/27 21:55:09;;;;;;;11.50;7.90;;;25.30;61.10;;;;;;5065789;28;20052;-72
2021/07/27 21:57:35;;;;;;;11.63;7.68;;;25.30;61.20;;;;;;5066122;28;20029;-72
2021/07/27 22:00:00;;;;;;;17.55;8.27;;;25.30;61.20;;;;;;5034243;28;20022;-72
2021/07/27 22:02:26;;;;;;;10.77;7.05;;;25.20;61.40;;;;;;5032729;28;20467;-71
2021/07/27 22:04:52;;;;;;;14.75;8.00;;;25.30;61.20;;;;;;5065672;28;20086;-72
2021/07/27 22:07:17;;;;;;;13.82;7.60;;;25.30;61.30;;;;;;5034091;28;20025;-72
2021/07/27 22:09:43;;;;;;;10.65;7.47;;;25.20;61.20;;;;;;5034543;28;20033;-72
2021/07/27 22:12:09;;;;;;;14.60;7.05;;;25.20;61.30;;;;;;5032871;28;20370;-72
2021/07/27 22:14:34;;;;;;;11.82;6.97;;;25.20;61.20;;;;;;5066021;28;20021;-72
2021/07/27 22:17:00;;;;;;;12.07;6.60;;;25.20;61.30;;;;;;5033715;28;20026;-72
2021/07/27 22:19:26;;;;;;;9.98;6.93;;;25.10;61.30;;;;;;5034120;28;20036;-72
2021/07/27 22:21:52;;;;;;;11.48;6.85;;;25.10;61.30;;;;;;5033336;28;20394;-72
2021/07/27 22:24:17;;;;;;;9.38;6.78;;;25.10;61.30;;;;;;5033519;28;20034;-72
2021/07/27 22:26:43;;;;;;;11.65;7.10;;;25.10;61.40;;;;;;5032226;28;20079;-72
2021/07/27 22:29:09;;;;;;;9.80;6.43;;;25.10;61.30;;;;;;5033910;28;20030;-72
2021/07/27 22:31:34;;;;;;;11.02;6.88;;;25.10;61.30;;;;;;5034078;28;20032;-72
2021/07/27 22:34:00;;;;;;;13.18;7.22;;;25.10;61.30;;;;;;5032953;28;20056;-72
2021/07/27 22:36:26;;;;;;;10.65;6.88;;;25.10;61.30;;;;;;5034065;28;20064;-72
2021/07/27 22:38:51;;;;;;;11.70;6.53;;;25.10;61.30;;;;;;5032008;28;20064;-73
2021/07/27 22:41:24;;;;;;;12.45;6.32;;;25.00;61.30;;;;;;5032119;28;20483;-72
2021/07/27 22:43:51;;;;;;;11.02;6.47;;;25.00;61.10;;;;;;5033657;28;20029;-72
2021/07/27 22:46:18;;;;;;;10.88;6.07;;;25.00;61.00;;;;;;5031971;28;20100;-72
2021/07/27 22:48:44;;;;;;;10.10;6.43;;;25.00;60.70;;;;;;5032858;28;20091;-73
2021/07/27 22:51:11;;;;;;;10.20;6.25;;;25.10;60.70;;;;;;5033423;28;20029;-72
2021/07/27 22:53:37;;;;;;;10.65;6.40;;;25.00;60.50;;;;;;5032407;28;20038;-72
2021/07/27 22:56:03;;;;;;;9.60;5.90;;;25.10;60.40;;;;;;5065266;28;20072;-72
2021/07/27 22:58:30;;;;;;;10.32;5.90;;;25.20;60.10;;;;;;5033806;28;20363;-72
2021/07/27 23:01:03;;;;;;;8.23;5.93;;;25.10;60.10;;;;;;5031352;28;20022;-72
2021/07/27 23:03:29;;;;;;;10.18;5.88;;;25.10;60.10;;;;;;5033229;28;20060;-72
2021/07/27 23:05:54;;;;;;;10.30;6.22;;;25.10;60.00;;;;;;5033952;28;20021;-72
2021/07/27 23:08:20;;;;;;;8.10;5.40;;;25.10;60.60;;;;;;5064993;28;20051;-72
2021/07/27 23:10:46;;;;;;;13.98;5.70;;;25.00;59.90;;;;;;5033352;28;20028;-72
2021/07/27 23:13:12;;;;;;;10.45;5.47;;;25.00;59.90;;;;;;5033881;28;20053;-72
2021/07/27 23:15:38;;;;;;;8.07;5.15;;;25.00;59.90;;;;;;5033828;28;20032;-72
2021/07/27 23:18:04;;;;;;;7.47;4.95;;;25.00;59.70;;;;;;5033190;28;20037;-72
2021/07/27 23:20:30;;;;;;;11.95;5.90;;;25.00;59.50;;;;;;5031719;28;20055;-71
2021/07/27 23:22:57;;;;;;;9.30;5.25;;;25.00;59.50;;;;;;5032702;28;20043;-72
2021/07/27 23:28:00;;;;;;;9.90;4.95;;;25.00;59.30;;;;;;5032874;28;20022;-71
2021/07/27 23:30:27;;;;;;;8.55;4.90;;;25.00;59.20;;;;;;5033570;28;20052;-71
2021/07/27 23:32:52;;;;;;;9.18;5.15;;;25.00;59.00;;;;;;5032907;28;20172;-72
2021/07/27 23:35:18;;;;;;;10.50;5.25;;;25.00;58.80;;;;;;5033018;28;20100;-72
2021/07/27 23:37:45;;;;;;;9.68;4.95;;;25.00;58.80;;;;;;5032205;28;20032;-71
2021/07/27 23:40:12;;;;;;;9.38;4.60;;;25.00;58.80;;;;;;5031580;28;20022;-70
2021/07/27 23:42:38;;;;;;;9.30;4.85;;;25.00;58.70;;;;;;5031145;28;20034;-72
2021/07/27 23:45:04;;;;;;;8.88;4.88;;;25.00;58.80;;;;;;5033032;28;20032;-69
2021/07/27 23:47:32;;;;;;;8.50;4.28;;;25.00;58.60;;;;;;5032959;28;20026;-70
2021/07/27 23:49:58;;;;;;;10.93;4.55;;;25.00;58.40;;;;;;5034468;28;20044;-70
2021/07/27 23:52:24;;;;;;;7.85;4.85;;;25.00;58.50;;;;;;5035056;28;20382;-70
2021/07/27 23:54:50;;;;;;;11.88;4.85;;;25.00;58.30;;;;;;5036381;28;20096;-70
2021/07/27 23:57:16;;;;;;;12.02;5.00;;;25.10;58.20;;;;;;5036963;28;20018;-70
2021/07/27 23:59:42;;;;;;;8.50;4.88;;;25.10;58.20;;;;;;5034297;28;20458;-70
